createdAt,value
2023-04-09T00:00:17.785Z,81.40
2023-04-09T00:02:45.058Z,81.50
2023-04-09T00:05:12.368Z,81.60
2023-04-09T00:07:39.544Z,81.60
2023-04-09T00:10:07.321Z,81.50
2023-04-09T00:12:34.398Z,81.50
2023-04-09T00:15:01.648Z,81.20
2023-04-09T00:17:28.783Z,81.30
2023-04-09T00:19:56.078Z,81.40
2023-04-09T00:22:23.182Z,82.40
2023-04-09T00:24:50.278Z,81.90
2023-04-09T00:27:17.400Z,81.80
2023-04-09T00:29:44.474Z,81.50
2023-04-09T00:32:11.524Z,81.90
2023-04-09T00:34:38.756Z,81.90
2023-04-09T00:37:06.039Z,81.30
2023-04-09T00:39:33.092Z,81.20
2023-04-09T00:42:04.332Z,81.60
2023-04-09T00:44:31.491Z,81.70
2023-04-09T00:47:00.689Z,82.20
2023-04-09T00:49:27.882Z,82.30
2023-04-09T00:51:55.117Z,82.40
2023-04-09T00:54:22.458Z,82.40
2023-04-09T00:56:49.541Z,82.20
2023-04-09T00:59:16.722Z,82.30
2023-04-09T01:01:43.804Z,82.00
2023-04-09T01:04:11.255Z,81.10
2023-04-09T01:06:51.516Z,80.90
2023-04-09T01:09:28.507Z,80.70
2023-04-09T01:12:06.387Z,80.50
2023-04-09T01:14:49.644Z,80.20
2023-04-09T01:17:21.932Z,80.20
2023-04-09T01:20:11.562Z,80.00
2023-04-09T01:23:18.523Z,79.70
2023-04-09T01:26:08.686Z,80.10
2023-04-09T01:28:40.671Z,79.90
2023-04-09T01:31:24.384Z,79.70
2023-04-09T01:33:52.425Z,80.80
2023-04-09T01:36:20.906Z,81.70
2023-04-09T01:38:51.267Z,80.90
2023-04-09T01:41:24.532Z,80.80
2023-04-09T01:43:52.956Z,81.00
2023-04-09T01:46:21.684Z,81.20
2023-04-09T01:48:49.705Z,81.40
2023-04-09T01:51:17.573Z,81.80
2023-04-09T01:53:44.680Z,81.80
2023-04-09T01:56:11.981Z,81.80
2023-04-09T01:58:39.025Z,82.20
2023-04-09T02:01:21.309Z,82.30
2023-04-09T02:03:56.384Z,82.60
2023-04-09T02:06:31.982Z,82.70
2023-04-09T02:09:01.813Z,82.50
2023-04-09T02:11:34.085Z,82.60
2023-04-09T02:14:03.490Z,82.60
2023-04-09T02:16:32.051Z,82.60
2023-04-09T02:19:01.264Z,82.60
2023-04-09T02:21:29.462Z,82.60
2023-04-09T02:23:56.620Z,82.40
2023-04-09T02:26:24.322Z,82.40
2023-04-09T02:28:51.876Z,82.20
2023-04-09T02:31:19.164Z,82.00
2023-04-09T02:33:46.364Z,81.90
2023-04-09T02:36:13.896Z,81.80
2023-04-09T02:38:42.352Z,81.90
2023-04-09T02:41:09.973Z,81.90
2023-04-09T02:43:37.324Z,82.00
2023-04-09T02:46:04.585Z,81.80
2023-04-09T02:48:31.712Z,82.00
2023-04-09T02:50:58.892Z,82.00
2023-04-09T02:53:26.236Z,81.80
2023-04-09T02:55:53.321Z,81.80
2023-04-09T02:58:20.358Z,81.90
2023-04-09T03:00:47.426Z,81.60
2023-04-09T03:03:14.637Z,81.90
2023-04-09T03:05:41.953Z,81.80
2023-04-09T03:08:09.098Z,81.70
2023-04-09T03:10:36.153Z,81.50
2023-04-09T03:13:03.250Z,80.80
2023-04-09T03:15:30.332Z,80.40
2023-04-09T03:17:57.438Z,80.20
2023-04-09T03:20:24.544Z,80.10
2023-04-09T03:22:51.603Z,80.70
2023-04-09T03:25:20.518Z,80.80
2023-04-09T03:27:47.586Z,80.10
2023-04-09T03:30:14.676Z,80.10
2023-04-09T03:32:41.781Z,80.40
2023-04-09T03:35:09.081Z,80.40
2023-04-09T03:37:36.136Z,80.20
2023-04-09T03:40:03.840Z,79.50
2023-04-09T03:42:31.225Z,79.90
2023-04-09T03:44:58.286Z,79.60
2023-04-09T03:47:25.362Z,79.10
2023-04-09T03:49:52.488Z,79.20
2023-04-09T03:52:19.576Z,79.60
2023-04-09T03:54:46.685Z,79.50
2023-04-09T03:57:13.786Z,79.10
2023-04-09T03:59:40.859Z,79.80
2023-04-09T04:02:08.092Z,79.10
2023-04-09T04:04:35.290Z,78.90
2023-04-09T04:07:03.710Z,79.00
2023-04-09T04:09:30.844Z,78.80
2023-04-09T04:11:58.745Z,79.30
2023-04-09T04:14:25.951Z,79.30
2023-04-09T04:16:53.086Z,79.30
2023-04-09T04:19:20.173Z,79.20
2023-04-09T04:21:47.241Z,79.60
2023-04-09T04:24:14.294Z,79.50
2023-04-09T04:26:41.375Z,80.10
2023-04-09T04:29:08.707Z,81.20
2023-04-09T04:31:35.785Z,81.90
2023-04-09T04:34:02.939Z,82.40
2023-04-09T04:36:30.638Z,82.60
2023-04-09T04:38:57.715Z,82.20
2023-04-09T04:41:24.846Z,82.50
2023-04-09T04:43:51.999Z,82.40
2023-04-09T04:46:20.512Z,83.00
2023-04-09T04:48:47.838Z,82.50
2023-04-09T04:51:14.911Z,82.70
2023-04-09T04:53:41.952Z,82.50
2023-04-09T04:56:16.011Z,82.30
2023-04-09T04:58:43.427Z,82.40
2023-04-09T05:01:10.632Z,82.40
2023-04-09T05:03:38.072Z,82.70
2023-04-09T05:06:05.466Z,82.20
2023-04-09T05:08:32.514Z,81.80
2023-04-09T05:10:59.728Z,81.80
2023-04-09T05:13:26.810Z,81.80
2023-04-09T05:15:53.913Z,81.70
2023-04-09T05:18:21.011Z,81.90
2023-04-09T05:20:48.061Z,81.80
2023-04-09T05:23:15.687Z,81.80
2023-04-09T05:25:42.830Z,81.90
2023-04-09T05:28:11.249Z,81.80
2023-04-09T05:30:38.391Z,81.70
2023-04-09T05:33:05.666Z,81.60
2023-04-09T05:35:32.733Z,81.50
2023-04-09T05:37:59.813Z,80.90
2023-04-09T05:40:26.869Z,80.40
2023-04-09T05:42:53.966Z,80.10
2023-04-09T05:45:21.048Z,80.10
2023-04-09T05:47:48.179Z,79.90
2023-04-09T05:50:15.280Z,79.90
2023-04-09T05:52:42.369Z,79.40
2023-04-09T05:55:09.806Z,79.30
2023-04-09T05:57:36.861Z,79.10
2023-04-09T06:00:04.442Z,78.80
2023-04-09T06:02:31.784Z,78.90
2023-04-09T06:04:59.169Z,78.70
2023-04-09T06:07:26.345Z,78.70
2023-04-09T06:09:54.812Z,79.30
2023-04-09T06:12:21.978Z,80.10
2023-04-09T06:14:49.399Z,80.00
2023-04-09T06:17:16.446Z,79.50
2023-04-09T06:19:43.685Z,79.60
2023-04-09T06:22:13.473Z,79.50
2023-04-09T06:24:40.732Z,79.60
2023-04-09T06:27:07.858Z,79.60
2023-04-09T06:29:34.990Z,79.70
2023-04-09T06:32:02.092Z,79.70
2023-04-09T06:34:29.220Z,79.60
2023-04-09T06:36:56.495Z,79.60
2023-04-09T06:39:23.550Z,79.70
2023-04-09T06:41:50.650Z,79.50
2023-04-09T06:44:17.779Z,79.40
2023-04-09T06:46:44.872Z,79.10
2023-04-09T06:49:12.062Z,79.00
2023-04-09T06:51:39.156Z,79.10
2023-04-09T06:54:06.239Z,79.10
2023-04-09T06:56:34.358Z,79.10
2023-04-09T06:59:01.424Z,79.20
2023-04-09T07:01:28.593Z,79.00
2023-04-09T07:03:55.828Z,79.10
2023-04-09T07:06:23.207Z,79.10
2023-04-09T07:08:50.615Z,79.00
2023-04-09T07:11:17.901Z,78.40
2023-04-09T07:13:47.048Z,78.30
2023-04-09T07:16:14.472Z,78.40
2023-04-09T07:18:41.651Z,78.50
2023-04-09T07:21:08.767Z,78.70
2023-04-09T07:23:37.086Z,78.40
2023-04-09T07:26:05.633Z,78.30
2023-04-09T07:28:33.506Z,78.70
2023-04-09T07:31:04.516Z,79.10
2023-04-09T07:33:31.788Z,79.20
2023-04-09T07:35:59.108Z,79.30
2023-04-09T07:38:29.107Z,79.30
2023-04-09T07:40:56.221Z,79.40
2023-04-09T07:43:23.270Z,79.00
2023-04-09T07:45:53.122Z,78.90
2023-04-09T07:48:20.403Z,78.90
2023-04-09T07:50:48.213Z,79.30
2023-04-09T07:53:15.461Z,79.40
2023-04-09T07:55:42.560Z,79.60
2023-04-09T07:58:09.617Z,79.80
2023-04-09T08:00:36.758Z,79.80
2023-04-09T08:03:04.137Z,79.90
2023-04-09T08:05:31.389Z,80.00
2023-04-09T08:07:58.449Z,79.90
2023-04-09T08:10:25.682Z,80.10
2023-04-09T08:12:52.789Z,80.10
2023-04-09T08:15:20.163Z,80.00
2023-04-09T08:17:47.353Z,80.10
2023-04-09T08:20:16.785Z,80.10
2023-04-09T08:22:43.881Z,80.00
2023-04-09T08:25:10.981Z,80.10
2023-04-09T08:27:39.566Z,79.90
2023-04-09T08:30:07.577Z,79.70
2023-04-09T08:32:35.552Z,79.80
2023-04-09T08:35:02.683Z,79.90
2023-04-09T08:37:29.743Z,79.60
2023-04-09T08:39:56.851Z,80.20
2023-04-09T08:42:26.078Z,80.30
2023-04-09T08:44:53.395Z,80.20
2023-04-09T08:47:20.925Z,81.00
2023-04-09T08:49:50.085Z,81.40
2023-04-09T08:52:21.732Z,82.20
2023-04-09T08:54:50.533Z,82.50
2023-04-09T08:57:17.618Z,82.50
2023-04-09T08:59:44.679Z,83.10
2023-04-09T09:02:12.542Z,83.70
2023-04-09T09:04:46.382Z,84.50
2023-04-09T09:07:14.830Z,84.00
2023-04-09T09:10:03.484Z,84.20
2023-04-09T09:12:40.640Z,84.80
2023-04-09T09:15:27.347Z,85.30
2023-04-09T09:17:57.072Z,85.50
2023-04-09T09:20:25.106Z,85.80
2023-04-09T09:22:54.960Z,86.20
2023-04-09T09:25:24.542Z,86.30
2023-04-09T09:27:52.663Z,86.30
2023-04-09T09:30:27.299Z,86.50
2023-04-09T09:33:06.677Z,86.40
2023-04-09T09:35:57.508Z,86.30
2023-04-09T09:38:24.636Z,86.10
2023-04-09T09:40:52.387Z,86.20
2023-04-09T09:43:19.488Z,86.20
2023-04-09T09:45:47.713Z,86.20
2023-04-09T09:48:15.553Z,86.10
2023-04-09T09:50:44.619Z,86.20
2023-04-09T09:53:12.186Z,86.20
2023-04-09T09:55:41.407Z,86.10
2023-04-09T09:58:27.981Z,85.90
2023-04-09T10:00:57.354Z,85.80
2023-04-09T10:03:30.815Z,85.80
2023-04-09T10:05:58.959Z,85.50
2023-04-09T10:08:26.769Z,85.10
2023-04-09T10:10:54.050Z,85.20
2023-04-09T10:13:31.447Z,85.60
2023-04-09T10:15:59.762Z,85.50
2023-04-09T10:18:26.912Z,85.60
2023-04-09T10:21:05.688Z,85.90
2023-04-09T10:23:48.090Z,86.00
2023-04-09T10:26:15.306Z,86.00
2023-04-09T10:28:43.348Z,86.00
2023-04-09T10:31:10.626Z,86.40
2023-04-09T10:33:38.821Z,86.10
2023-04-09T10:36:12.104Z,85.80
2023-04-09T10:38:41.427Z,85.60
2023-04-09T10:41:25.127Z,86.00
2023-04-09T10:43:52.246Z,85.40
2023-04-09T10:46:30.866Z,85.40
2023-04-09T10:49:18.709Z,85.40
2023-04-09T10:52:08.865Z,85.10
2023-04-09T10:54:45.749Z,84.90
2023-04-09T10:57:22.899Z,85.00
2023-04-09T10:59:55.200Z,85.20
2023-04-09T11:02:40.591Z,86.10
2023-04-09T11:05:27.015Z,85.30
2023-04-09T11:08:03.422Z,85.10
2023-04-09T11:10:31.588Z,85.10
2023-04-09T11:12:58.860Z,84.70
2023-04-09T11:15:25.970Z,85.10
2023-04-09T11:17:53.313Z,84.90
2023-04-09T11:20:22.828Z,84.70
2023-04-09T11:22:51.924Z,85.20
2023-04-09T11:25:30.520Z,84.90
2023-04-09T11:27:57.841Z,84.60
2023-04-09T11:30:25.060Z,84.20
2023-04-09T11:32:52.864Z,83.90
2023-04-09T11:35:21.613Z,83.70
2023-04-09T11:37:50.089Z,83.70
2023-04-09T11:40:25.848Z,83.70
2023-04-09T11:42:54.627Z,83.60
2023-04-09T11:45:27.915Z,83.80
2023-04-09T11:47:55.354Z,83.60
2023-04-09T11:50:23.118Z,83.80
2023-04-09T11:52:50.822Z,83.60
2023-04-09T11:55:28.782Z,83.50
2023-04-09T11:58:01.130Z,83.50
2023-04-09T12:00:28.922Z,83.40
2023-04-09T12:03:05.208Z,83.40
2023-04-09T12:05:34.986Z,84.00
2023-04-09T12:08:07.971Z,85.00
2023-04-09T12:10:37.856Z,85.00
2023-04-09T12:13:10.367Z,84.90
2023-04-09T12:15:40.920Z,85.10
2023-04-09T12:18:09.737Z,85.20
2023-04-09T12:20:44.629Z,85.00
2023-04-09T12:23:13.120Z,84.70
2023-04-09T12:25:42.884Z,85.30
2023-04-09T12:28:13.645Z,85.10
2023-04-09T12:30:40.995Z,85.20
2023-04-09T12:33:10.801Z,85.40
2023-04-09T12:35:38.827Z,85.30
2023-04-09T12:38:06.271Z,85.00
2023-04-09T12:40:34.784Z,85.10
2023-04-09T12:43:02.358Z,85.00
2023-04-09T12:45:30.348Z,84.30
2023-04-09T12:47:57.981Z,84.20
2023-04-09T12:50:25.294Z,83.60
2023-04-09T12:52:52.331Z,83.50
2023-04-09T12:55:19.370Z,83.50
2023-04-09T12:57:49.337Z,83.60
2023-04-09T13:00:16.422Z,82.80
2023-04-09T13:02:43.723Z,83.10
2023-04-09T13:05:10.946Z,83.10
2023-04-09T13:07:38.115Z,82.90
2023-04-09T13:10:06.008Z,82.70
2023-04-09T13:12:33.141Z,82.50
2023-04-09T13:15:00.245Z,82.10
2023-04-09T13:17:27.340Z,82.20
2023-04-09T13:19:54.431Z,81.30
2023-04-09T13:22:21.565Z,77.50
2023-04-09T13:24:48.691Z,78.30
2023-04-09T13:27:16.578Z,72.50
2023-04-09T13:29:43.706Z,75.40
2023-04-09T13:32:11.361Z,74.90
2023-04-09T13:34:39.289Z,76.90
2023-04-09T13:37:06.857Z,77.70
2023-04-09T13:39:34.054Z,77.40
2023-04-09T13:42:07.331Z,77.10
2023-04-09T13:44:37.128Z,76.30
2023-04-09T13:47:04.209Z,75.60
2023-04-09T13:49:31.330Z,76.50
2023-04-09T13:51:59.350Z,76.10
2023-04-09T13:54:27.117Z,76.80
2023-04-09T13:56:54.197Z,77.30
2023-04-09T13:59:21.412Z,78.00
2023-04-09T14:01:48.637Z,78.00
2023-04-09T14:04:15.949Z,78.10
2023-04-09T14:06:43.298Z,78.20
2023-04-09T14:09:11.220Z,78.10
2023-04-09T14:11:38.763Z,78.10
2023-04-09T14:14:05.872Z,77.50
2023-04-09T14:16:33.234Z,77.30
2023-04-09T14:19:00.443Z,78.00
2023-04-09T14:21:29.147Z,78.40
2023-04-09T14:23:56.374Z,77.30
2023-04-09T14:26:24.207Z,77.40
2023-04-09T14:28:51.887Z,77.40
2023-04-09T14:31:22.005Z,77.30
2023-04-09T14:33:49.306Z,77.10
2023-04-09T14:36:17.811Z,77.20
2023-04-09T14:38:45.063Z,76.90
2023-04-09T14:41:12.202Z,76.80
2023-04-09T14:43:39.609Z,76.60
2023-04-09T14:46:07.022Z,76.40
2023-04-09T14:48:36.178Z,77.00
2023-04-09T14:51:03.437Z,76.60
2023-04-09T14:53:30.513Z,75.30
2023-04-09T14:55:57.603Z,73.50
2023-04-09T14:58:24.700Z,73.40
2023-04-09T15:00:51.739Z,75.20
2023-04-09T15:03:19.170Z,76.50
2023-04-09T15:05:47.874Z,76.30
2023-04-09T15:08:15.234Z,76.30
2023-04-09T15:10:42.309Z,76.00
2023-04-09T15:13:09.420Z,76.50
2023-04-09T15:15:36.677Z,76.40
2023-04-09T15:18:06.195Z,76.80
2023-04-09T15:20:37.642Z,76.30
2023-04-09T15:23:04.793Z,76.20
2023-04-09T15:25:32.718Z,76.80
2023-04-09T15:27:59.883Z,76.90
2023-04-09T15:30:27.125Z,77.30
2023-04-09T15:32:54.715Z,77.40
2023-04-09T15:35:26.491Z,77.70
2023-04-09T15:37:53.542Z,78.30
2023-04-09T15:40:20.622Z,77.70
2023-04-09T15:42:47.766Z,77.70
2023-04-09T15:45:16.187Z,77.80
2023-04-09T15:47:46.692Z,78.10
2023-04-09T15:50:14.346Z,78.40
2023-04-09T15:52:41.632Z,78.80
2023-04-09T15:55:09.228Z,78.90
2023-04-09T15:57:36.485Z,78.80
2023-04-09T16:00:03.843Z,80.10
2023-04-09T16:02:31.011Z,79.30
2023-04-09T16:04:58.180Z,79.60
2023-04-09T16:07:25.544Z,78.00
2023-04-09T16:09:52.617Z,76.00
2023-04-09T16:12:19.710Z,76.20
2023-04-09T16:14:46.760Z,73.70
2023-04-09T16:17:13.856Z,71.60
2023-04-09T16:19:42.648Z,72.40
2023-04-09T16:22:10.306Z,73.30
2023-04-09T16:24:37.550Z,72.40
2023-04-09T16:27:04.634Z,72.60
2023-04-09T16:29:31.763Z,72.50
2023-04-09T16:31:58.864Z,72.40
2023-04-09T16:34:25.971Z,73.20
2023-04-09T16:36:53.027Z,73.30
2023-04-09T16:39:20.252Z,74.20
2023-04-09T16:41:47.325Z,75.50
2023-04-09T16:44:14.447Z,75.90
2023-04-09T16:46:42.725Z,75.40
2023-04-09T16:49:09.976Z,75.90
2023-04-09T16:51:37.939Z,76.80
2023-04-09T16:54:05.132Z,77.20
2023-04-09T16:56:32.269Z,77.30
2023-04-09T16:58:59.470Z,77.50
2023-04-09T17:01:27.647Z,78.00
2023-04-09T17:03:55.850Z,78.70
2023-04-09T17:06:23.012Z,78.40
2023-04-09T17:08:50.166Z,78.70
2023-04-09T17:11:17.466Z,79.00
2023-04-09T17:13:45.024Z,79.50
2023-04-09T17:16:12.313Z,79.70
2023-04-09T17:18:39.384Z,80.00
2023-04-09T17:21:06.969Z,80.40
2023-04-09T17:23:34.085Z,80.40
2023-04-09T17:26:02.157Z,80.50
2023-04-09T17:28:29.466Z,80.60
2023-04-09T17:30:56.556Z,80.50
2023-04-09T17:33:23.679Z,80.90
2023-04-09T17:35:50.783Z,80.90
2023-04-09T17:38:21.125Z,80.70
2023-04-09T17:40:48.259Z,80.70
2023-04-09T17:43:15.550Z,80.30
2023-04-09T17:45:43.146Z,80.60
2023-04-09T17:48:10.700Z,80.80
2023-04-09T17:50:38.891Z,80.80
2023-04-09T17:53:06.087Z,80.50
2023-04-09T17:55:33.153Z,81.10
2023-04-09T17:58:00.368Z,81.30
2023-04-09T18:00:27.563Z,81.50
2023-04-09T18:02:54.955Z,81.90
2023-04-09T18:05:23.553Z,81.80
2023-04-09T18:07:51.714Z,82.50
2023-04-09T18:10:19.693Z,82.20
2023-04-09T18:12:46.790Z,82.80
2023-04-09T18:15:13.947Z,82.80
2023-04-09T18:17:41.006Z,82.60
2023-04-09T18:20:08.489Z,82.50
2023-04-09T18:22:35.610Z,82.50
2023-04-09T18:25:02.666Z,82.80
2023-04-09T18:27:30.071Z,82.90
2023-04-09T18:29:57.116Z,82.80
2023-04-09T18:32:25.136Z,82.60
2023-04-09T18:34:52.777Z,82.40
2023-04-09T18:37:21.327Z,82.30
2023-04-09T18:39:48.500Z,82.10
2023-04-09T18:42:15.570Z,82.80
2023-04-09T18:44:42.716Z,82.80
2023-04-09T18:47:10.892Z,82.60
2023-04-09T18:49:38.040Z,82.70
2023-04-09T18:52:09.223Z,83.20
2023-04-09T18:54:37.403Z,82.90
2023-04-09T18:57:04.764Z,83.10
2023-04-09T18:59:34.524Z,83.10
2023-04-09T19:02:05.428Z,83.80
2023-04-09T19:04:36.335Z,83.90
2023-04-09T19:07:03.832Z,83.80
2023-04-09T19:09:32.326Z,83.60
2023-04-09T19:11:59.492Z,83.40
2023-04-09T19:14:26.670Z,83.50
2023-04-09T19:16:54.275Z,83.50
2023-04-09T19:19:23.170Z,83.30
2023-04-09T19:21:50.543Z,83.10
2023-04-09T19:24:17.610Z,82.60
2023-04-09T19:26:44.715Z,82.50
2023-04-09T19:29:11.826Z,82.40
2023-04-09T19:31:39.014Z,82.70
2023-04-09T19:34:06.356Z,82.20
2023-04-09T19:36:33.903Z,82.60
2023-04-09T19:39:01.232Z,82.70
2023-04-09T19:41:28.411Z,82.50
2023-04-09T19:43:55.870Z,82.10
2023-04-09T19:46:23.053Z,82.40
2023-04-09T19:48:50.636Z,82.40
2023-04-09T19:51:21.885Z,82.20
2023-04-09T19:53:49.124Z,82.50
2023-04-09T19:56:16.319Z,82.40
2023-04-09T19:58:43.943Z,82.30
2023-04-09T20:01:11.160Z,82.20
2023-04-09T20:03:38.510Z,81.70
2023-04-09T20:06:09.865Z,81.60
2023-04-09T20:08:37.841Z,82.10
2023-04-09T20:11:05.348Z,82.20
2023-04-09T20:13:33.082Z,82.50
2023-04-09T20:16:00.517Z,82.30
2023-04-09T20:18:28.516Z,82.20
2023-04-09T20:20:55.847Z,82.10
2023-04-09T20:23:22.929Z,81.80
2023-04-09T20:25:56.131Z,81.70
2023-04-09T20:28:23.172Z,81.50
2023-04-09T20:30:50.572Z,81.90
2023-04-09T20:33:20.678Z,80.60
2023-04-09T20:35:48.121Z,80.30
2023-04-09T20:38:15.448Z,80.30
2023-04-09T20:40:42.533Z,80.20
2023-04-09T20:43:09.627Z,80.30
2023-04-09T20:45:36.756Z,80.30
2023-04-09T20:48:03.955Z,80.70
2023-04-09T20:50:31.137Z,80.70
2023-04-09T20:52:58.785Z,81.00
2023-04-09T20:55:26.184Z,80.90
2023-04-09T20:57:55.442Z,80.80
2023-04-09T21:00:22.964Z,81.00
2023-04-09T21:02:51.360Z,81.10
2023-04-09T21:05:23.534Z,81.50
2023-04-09T21:07:54.555Z,81.80
2023-04-09T21:10:21.716Z,82.00
2023-04-09T21:12:48.852Z,82.10
2023-04-09T21:15:16.159Z,82.10
2023-04-09T21:17:43.310Z,82.20
2023-04-09T21:20:12.257Z,82.00
2023-04-09T21:22:39.290Z,82.20
2023-04-09T21:25:06.792Z,82.30
2023-04-09T21:27:33.910Z,82.60
2023-04-09T21:30:01.004Z,82.40
2023-04-09T21:32:28.135Z,82.50
2023-04-09T21:34:55.349Z,82.80
2023-04-09T21:37:22.611Z,83.00
2023-04-09T21:39:49.833Z,82.60
2023-04-09T21:42:16.936Z,82.40
2023-04-09T21:44:44.028Z,82.30
2023-04-09T21:47:12.007Z,82.00
2023-04-09T21:49:40.000Z,81.60
2023-04-09T21:52:13.776Z,81.30
2023-04-09T21:54:42.107Z,81.30
2023-04-09T21:57:09.976Z,81.00
2023-04-09T21:59:37.366Z,80.70
2023-04-09T22:02:04.927Z,80.30
2023-04-09T22:04:32.222Z,79.80
2023-04-09T22:06:59.313Z,79.80
2023-04-09T22:09:26.438Z,79.80
2023-04-09T22:11:53.718Z,79.70
2023-04-09T22:14:22.029Z,79.70
2023-04-09T22:16:49.122Z,79.70
2023-04-09T22:19:16.562Z,79.80
2023-04-09T22:21:43.627Z,79.70
2023-04-09T22:24:10.689Z,79.70
2023-04-09T22:26:39.018Z,79.80
2023-04-09T22:29:07.073Z,80.10
2023-04-09T22:31:34.244Z,80.30
2023-04-09T22:34:13.438Z,80.10
2023-04-09T22:36:46.843Z,80.10
2023-04-09T22:39:13.959Z,80.50
2023-04-09T22:41:41.102Z,81.00
2023-04-09T22:44:09.393Z,81.00
2023-04-09T22:46:36.805Z,81.00
2023-04-09T22:49:05.334Z,81.00
2023-04-09T22:51:36.623Z,80.80
2023-04-09T22:54:03.801Z,80.80
2023-04-09T22:56:33.365Z,80.50
2023-04-09T22:59:00.502Z,80.30
2023-04-09T23:01:28.432Z,80.60
2023-04-09T23:03:55.897Z,80.60
2023-04-09T23:06:25.094Z,80.10
2023-04-09T23:08:52.400Z,80.60
2023-04-09T23:11:19.730Z,81.10
2023-04-09T23:13:46.809Z,81.80
2023-04-09T23:16:14.243Z,81.10
2023-04-09T23:18:41.338Z,80.60
2023-04-09T23:21:10.495Z,80.10
2023-04-09T23:23:38.463Z,80.00
2023-04-09T23:26:06.250Z,79.80
2023-04-09T23:28:33.572Z,79.90
2023-04-09T23:31:00.963Z,79.50
2023-04-09T23:33:28.164Z,79.30
2023-04-09T23:35:55.382Z,79.30
2023-04-09T23:38:22.596Z,79.30
2023-04-09T23:40:49.784Z,79.30
2023-04-09T23:43:19.853Z,79.80
2023-04-09T23:45:49.664Z,79.90
2023-04-09T23:48:16.958Z,79.90
2023-04-09T23:50:44.123Z,80.40
2023-04-09T23:53:11.432Z,80.40
2023-04-09T23:55:40.868Z,80.40
2023-04-09T23:58:08.344Z,80.10
